Tiempo atmosférico en la estación meteorológica de Aldeanueva de Serrezuela, Segovia (1135 m.)



Fecha
DESCASC
Temp. máxima en grados centígrados (hora)
DESCASC
Temp. mínima en grados centígrados (hora)
DESCASC
Temp. media en grados centígrados
DESCASC
Racha de viento máxima en m/sg (hora)
DESCASC
Velocidad máxima media en intervalos de 10 minutos(hora)
DESCASC
Precipitaciones diarias en mm
DESCASC
Precipitaciones de 00:00 a 06:00 en mm
DESCASC
Precipitaciones de 06:00 a 12:00 en mm
DESCASC
Precipitaciones de 12:00 a 18:00 en mm
DESCASC
Precipitaciones de 18:00 a 24:00 en mm
DESCASC
23-05-2018 19.2 (18:20) 11.5 (23:50) 15.4 12.22 (15:30) 7.78 (15:30) 14 0 0 5.4 8.6
22-05-2018 20.2 (17:10) 10.2 (00:40) 15.2 8.33 (02:30) 5.28 (02:40) 2.8 2.8 0 0 0
21-05-2018 18.6 (19:00) 10.6 (23:59) 14.6 10.56 (14:40) 6.94 (14:40) 1.6 0 0 0 1.6
20-05-2018 17.7 (18:10) 10 (00:00) 13.9 11.39 (18:20) 6.94 (18:20) 0 0 0 0 0
19-05-2018 19.9 (18:10) 10.3 (00:00) 15.1 9.44 (23:40) 5.83 (23:00) 0 0 0 0 0
18-05-2018 16.2 (13:00) 9.1 (00:00) 12.7 9.17 (16:40) 6.11 (03:50) 11.2 0.4 0 10.6 0.2
17-05-2018 19.3 (16:50) 10 (00:00) 14.6 9.17 (01:00) 6.39 (01:30) 3 0 0.8 2 0.2
16-05-2018 20.2 (18:20) 5.7 (00:00) 13 9.44 (15:40) 5.83 (18:50) 0 0 0 0 0
15-05-2018 18.5 (17:10) 1.6 (00:00) 10.1 11.94 (18:30) 7.5 (18:40) 0 0 0 0 0
14-05-2018 12.8 (19:00) 4.6 (00:00) 8.7 11.11 (16:00) 6.39 (16:20) 0 0 0 0 0
13-05-2018 10.4 (17:40) -0.9 (-00:0) 4.7 11.39 (15:30) 6.94 (11:40) 0 0 0 0 0
12-05-2018 14.7 (00:00) 2 (00:00) 8.3 12.78 (15:20) 8.33 (14:40) 0.2 0 0.2 0 0
11-05-2018 20.9 (16:00) 9.1 (00:00) 15 12.78 (17:30) 8.61 (17:30) 2 0 0 2 0
10-05-2018 17 (16:20) 7.4 (00:00) 12.2 8.61 (09:10) 5.83 (09:10) 0 0 0 0 0
09-05-2018 19.7 (16:20) 7.2 (00:00) 13.5 9.17 (16:30) 5.28 (17:20) 0 0 0 0 0
08-05-2018 20.3 (18:20) 10.6 (00:00) 15.4 9.72 (19:20) 6.67 (19:10) 0 0 0 0 0
07-05-2018 20.7 (16:20) 12.1 (00:00) 16.4 12.5 (17:50) 7.5 (17:50) 1 0 0 0.6 0.4
06-05-2018 20.5 (16:20) 10.1 (00:00) 15.3 10.56 (00:50) 7.22 (01:20) 0 0 0 0 0
05-05-2018 19.4 (18:00) 3.4 (00:00) 11.4 9.17 (17:00) 4.72 (17:20) 0 0 0 0 0
04-05-2018 13.8 (17:00) 0 (00:00) 6.9 10.28 (19:00) 6.67 (17:50) 0 0 0 0 0
03-05-2018 10.4 (16:40) 2.5 (00:00) 6.4 13.61 (14:00) 8.33 (13:30) 0.2 0.2 0 0 0
02-05-2018 12.5 (15:50) 3.2 (00:00) 7.9 11.11 (11:40) 7.5 (12:00) 0.6 0 0 0 0.6
01-05-2018 10.1 (18:20) -0.8 (05:20) 4.7 7.5 (15:30) 4.44 (18:50) 0.2 0 0.2 0 0
30-04-2018 5.4 (13:30) 0.2 (00:00) 2.8 12.5 (00:50) 8.33 (00:50) 2.4 0 0.2 2 0.2
29-04-2018 7.6 (16:30) 1.3 (00:00) 4.4 18.61 (18:30) 12.78 (18:40) 2.8 0 0.2 2 0.6
28-04-2018 13.7 (15:20) 6.2 (00:00) 9.9 14.72 (14:40) 10 (15:20) 0 0 0 0 0
27-04-2018 17.2 (18:00) 9.9 (00:00) 13.6 11.11 (15:40) 6.94 (03:10) 0 0 0 0 0
26-04-2018 20.6 (17:40) 7.3 (00:00) 14 9.44 (16:20) 6.39 (01:10) 0 0 0 0 0
25-04-2018 23.1 (16:50) 9.5 (00:00) 16.3 9.44 (17:30) 6.11 (17:40) 0 0 0 0 0
24-04-2018 22.8 (15:00) 12.4 (00:00) 17.6 13.61 (20:40) 9.17 (20:40) 3.6 0 0 2 1.6

Gráficas

Temp. máximas Temp. mínimas Temp. medias Precipitaciones Rachas de viento máximas Velocidades máximas media en intervalos de 10 minutos

Datos horarios

Fecha y hora oficial Temperatura (ºC) Velocidad del viento (km/h) Dirección del viento Racha (km/h) Dirección de racha Precipitación (mm) Presión (hPa) Tendencia (hPa) Humedad (%)
2018-05-23 23:00:00 12.6 9 Nordeste 41 Oeste 7.8 -- -- 95
2018-05-23 22:00:00 15.1 7 Norte 31 Este 0.6 -- -- 81
2018-05-23 21:00:00 16.1 11 Este 19 Este 0 -- -- 72
2018-05-23 20:00:00 16.8 3 Nordeste 20 Sudeste 0 -- -- 72
2018-05-23 19:00:00 18.1 5 Sudeste 15 Sudeste 0 -- -- 68
2018-05-23 18:00:00 19 10 Sudeste 29 Sudeste 0 -- -- 62
2018-05-23 17:00:00 17.9 11 Sudeste 32 Sudeste 0 -- -- 71
2018-05-23 16:00:00 13.1 17 Sudeste 44 Sudeste 5.4 -- -- 91
2018-05-23 15:00:00 17.7 15 Este 22 Este 0 -- -- 68
2018-05-23 14:00:00 18.8 5 Noroeste 15 Norte 0 -- -- 68
2018-05-23 13:00:00 17.9 6 Norte 16 Oeste 0 -- -- 71
2018-05-23 12:00:00 18.5 10 Noroeste 16 Noroeste 0 -- -- 65
2018-05-23 11:00:00 17.5 8 Oeste 14 Sudoeste 0 -- -- 64
2018-05-23 10:00:00 17.2 9 Oeste 15 Sudoeste 0 -- -- 62
2018-05-23 09:00:00 15.9 6 Sudoeste 13 Sudoeste 0 -- -- 69
2018-05-23 08:00:00 14.1 8 Sur 9 Sur 0 -- -- 72
2018-05-23 07:00:00 14.2 7 Sur 10 Sur 0 -- -- 73
2018-05-23 06:00:00 14.3 6 Sur 12 Sur 0 -- -- 72
2018-05-23 05:00:00 14.1 5 Sur 14 Sudeste 0 -- -- 73
2018-05-23 04:00:00 14.5 6 Sur 8 Sudoeste 0 -- -- 69
2018-05-23 03:00:00 14.6 4 Sur 8 Sudoeste 0 -- -- 69
2018-05-23 02:00:00 14.5 6 Sudoeste 13 Sudoeste 0 -- -- 73
2018-05-23 01:00:00 14.5 9 Sudoeste 12 Sudoeste 0 -- -- 73
2018-05-23 00:00:00 15.3 7 Sur 10 Sudeste 0 -- -- 68
2018-05-22 23:00:00 14.9 9 Sur 13 Sudeste 0 -- -- 60
2018-05-22 22:00:00 14.9 8 Este 10 Este 0 -- -- 70
2018-05-22 21:00:00 17.6 5 Nordeste 18 Norte 0 -- -- 59
2018-05-22 20:00:00 19.5 7 Norte 18 Norte 0 -- -- 48
2018-05-22 19:00:00 19.9 10 Norte 21 Noroeste 0 -- -- 48
2018-05-22 18:00:00 19.9 12 Nordeste 19 Nordeste 0 -- -- 51
2018-05-22 17:00:00 19.6 12 Norte 20 Noroeste 0 -- -- 50
2018-05-22 16:00:00 18.7 9 Norte 21 Norte 0 -- -- 55
2018-05-22 15:00:00 17.7 5 Norte 21 Noroeste 0 -- -- 64
2018-05-22 14:00:00 18.5 7 Noroeste 20 Noroeste 0 -- -- 59
2018-05-22 13:00:00 17 8 Oeste 17 Oeste 0 -- -- 65
2018-05-22 12:00:00 16.2 6 Noroeste 16 Nordeste 0 -- -- 70
2018-05-22 11:00:00 15.2 8 Norte 15 Norte 0 -- -- 78
2018-05-22 10:00:00 14.9 7 Oeste 13 Oeste 0 -- -- 73
2018-05-22 09:00:00 14.3 5 Oeste 9 Oeste 0 -- -- 73
2018-05-22 08:00:00 12.2 2 Sudoeste 7 Sudoeste 0 -- -- 76
2018-05-22 07:00:00 11.7 7 Sudoeste 9 Sur 0 -- -- 77
2018-05-22 06:00:00 11.4 7 Sur 13 Sur 0 -- -- 80
2018-05-22 05:00:00 11 11 Sur 14 Sur 0 -- -- 83
2018-05-22 04:00:00 11.1 10 Sur 22 Sur 0 -- -- 84
2018-05-22 03:00:00 10.2 14 Sudoeste 30 Sur 0 -- -- 92
2018-05-22 02:00:00 10.5 15 Sudeste 24 Sur 0.4 -- -- 90
2018-05-22 01:00:00 10.4 4 Este 27 Nordeste 2.4 -- -- 95
2018-05-22 00:00:00 10.6 13 Nordeste 31 Norte 1.6 -- -- 95
2018-05-21 23:00:00 13.9 7 Norte 27 Noroeste 0 -- -- 69
2018-05-21 22:00:00 14 10 Sur 13 Sur 0 -- -- 61
2018-05-21 21:00:00 16.4 7 Sudoeste 13 Sudoeste 0 -- -- 52
2018-05-21 20:00:00 18.4 9 Oeste 21 Oeste 0 -- -- 51
2018-05-21 19:00:00 18.6 13 Sudoeste 31 Sudoeste 0 -- -- 50
2018-05-21 18:00:00 18.4 16 Oeste 30 Oeste 0 -- -- 51
2018-05-21 17:00:00 18.1 21 Sudoeste 31 Oeste 0 -- -- 46
2018-05-21 16:00:00 15.2 21 Sur 34 Sur 0 -- -- 62
2018-05-21 15:00:00 13.7 19 Sudeste 38 Sur 0 -- -- 70
2018-05-21 14:00:00 17.4 15 Oeste 24 Oeste 0 -- -- 57
2018-05-21 13:00:00 16.4 10 Oeste 23 Oeste 0 -- -- 57
2018-05-21 12:00:00 16.6 15 Oeste 25 Sudoeste 0 -- -- 59
2018-05-21 11:00:00 15.6 9 Sudoeste 17 Oeste 0 -- -- 57
2018-05-21 10:00:00 14.9 9 Sudoeste 14 Sudoeste 0 -- -- 64
2018-05-21 09:00:00 12.6 6 Sudoeste 15 Sudoeste 0 -- -- 75
2018-05-21 08:00:00 11.2 11 Sudoeste 14 Sudoeste 0 -- -- 80
2018-05-21 07:00:00 11.4 6 Sudoeste 10 Sur 0 -- -- 76
2018-05-21 06:00:00 11.6 7 Sur 12 Sudoeste 0 -- -- 75
2018-05-21 05:00:00 12.1 10 Sudoeste 13 Sudoeste 0 -- -- 72
2018-05-21 04:00:00 12.1 9 Sudoeste 19 Sudoeste 0 -- -- 72
2018-05-21 03:00:00 12.7 8 Sur 10 Sur 0 -- -- 70
2018-05-21 02:00:00 11.9 3 Sudeste 6 Sur 0 -- -- 73
2018-05-21 01:00:00 12.5 0 Calma 6 Sur 0 -- -- 70
2018-05-21 00:00:00 12.6 5 Sur 7 Sudoeste 0 -- -- 70
2018-05-20 23:00:00 12.8 4 Sudeste 9 Sur 0 -- -- 69
2018-05-20 22:00:00 13.8 3 Oeste 6 Sudoeste 0 -- -- 63
2018-05-20 21:00:00 15 4 Sudeste 10 Sur 0 -- -- 58
2018-05-20 20:00:00 15.5 6 Sur 16 Sudeste 0 -- -- 56
2018-05-20 19:00:00 17.2 11 Sudeste 41 Sudeste 0 -- -- 51
2018-05-20 18:00:00 17.3 9 Sudoeste 15 Sudoeste 0 -- -- 51
2018-05-20 17:00:00 16.6 7 Sudoeste 18 Norte 0 -- -- 56
2018-05-20 16:00:00 15.4 2 Sur 33 Sur 0 -- -- 54
2018-05-20 15:00:00 15.1 11 Este 31 Este 0 -- -- 60
2018-05-20 14:00:00 16.1 6 Norte 17 Oeste 0 -- -- 59
2018-05-20 13:00:00 16.8 10 Oeste 17 Sudoeste 0 -- -- 61
2018-05-20 12:00:00 15.1 11 Noroeste 26 Sudoeste 0 -- -- 68
2018-05-20 11:00:00 14.3 14 Sudoeste 22 Oeste 0 -- -- 68
2018-05-20 10:00:00 13.3 13 Oeste 23 Sudoeste 0 -- -- 72
2018-05-20 09:00:00 12.1 2 Noroeste 10 Sudoeste 0 -- -- 75
2018-05-20 08:00:00 10.3 5 Sudoeste 8 Sudoeste 0 -- -- 77
2018-05-20 07:00:00 10.4 4 Oeste 13 Este 0 -- -- 71
2018-05-20 06:00:00 10.9 7 Este 13 Este 0 -- -- 71
2018-05-20 05:00:00 10.7 6 Este 14 Este 0 -- -- 71
2018-05-20 04:00:00 10.8 7 Sudeste 14 Este 0 -- -- 71
2018-05-20 03:00:00 11.6 9 Este 19 Nordeste 0 -- -- 69
2018-05-20 02:00:00 11.2 9 Este 30 Este 0 -- -- 69
2018-05-20 01:00:00 11.3 16 Este 37 Este 0 -- -- 73
2018-05-20 00:00:00 12.6 20 Este 34 Este 0 -- -- 69
2018-05-19 23:00:00 13.4 21 Este 33 Este 0 -- -- 66
2018-05-19 22:00:00 14.4 10 Norte 26 Norte 0 -- -- 62
2018-05-19 21:00:00 16.7 14 Norte 27 Norte 0 -- -- 54
2018-05-19 20:00:00 18.6 13 Norte 27 Norte 0 -- -- 51
2018-05-19 19:00:00 18.3 10 Norte 21 Noroeste 0 -- -- 49
2018-05-19 18:00:00 19.6 9 Noroeste 22 Norte 0 -- -- 46
2018-05-19 17:00:00 19.2 10 Norte 26 Norte 0 -- -- 42
2018-05-19 16:00:00 18.8 14 Norte 31 Norte 0 -- -- 44
2018-05-19 15:00:00 18.6 10 Norte 25 Nordeste 0 -- -- 48
2018-05-19 14:00:00 17.9 10 Norte 23 Nordeste 0 -- -- 56
2018-05-19 13:00:00 17.5 10 Norte 21 Norte 0 -- -- 58
2018-05-19 12:00:00 16.5 12 Norte 19 Nordeste 0 -- -- 65
2018-05-19 11:00:00 15.2 5 Norte 12 Norte 0 -- -- 76
2018-05-19 10:00:00 14.1 9 Norte 13 Norte 0 -- -- 81
2018-05-19 09:00:00 13.6 2 Noroeste 17 Sudeste 0 -- -- 77
2018-05-19 08:00:00 13 7 Sudeste 26 Este 0 -- -- 73
2018-05-19 07:00:00 11.8 18 Este 26 Este 0 -- -- 73
2018-05-19 06:00:00 10.6 13 Nordeste 18 Este 0 -- -- 82
2018-05-19 05:00:00 10.9 10 Nordeste 14 Norte 0 -- -- 81
2018-05-19 04:00:00 10.9 5 Nordeste 13 Sudeste 0 -- -- 82
2018-05-19 03:00:00 11.2 7 Este 14 Este 0 -- -- 81
2018-05-19 02:00:00 10.6 9 Este 12 Sudeste 0 -- -- 84
2018-05-19 01:00:00 11.6 8 Este 12 Este 0 -- -- 81
2018-05-19 00:00:00 10.8 5 Este 9 Sudeste 0 -- -- 88
2018-05-18 23:00:00 12.2 0 Calma 8 Sur 0 -- -- 80
2018-05-18 22:00:00 12.1 4 Este 11 Este 0 -- -- 80
2018-05-18 21:00:00 12.9 5 Nordeste 18 Nordeste 0.2 -- -- 81
2018-05-18 20:00:00 14.2 12 Nordeste 27 Nordeste 0 -- -- 74
2018-05-18 19:00:00 14 12 Nordeste 23 Nordeste 0 -- -- 74
2018-05-18 18:00:00 14 10 Nordeste 19 Nordeste 0 -- -- 81
2018-05-18 17:00:00 12.5 13 Nordeste 33 Norte 0 -- -- 86
2018-05-18 16:00:00 12.9 4 Sudeste 14 Sudeste 0.2 -- -- 85
2018-05-18 15:00:00 11.2 4 Oeste 25 Sur 10.4 -- -- 88
2018-05-18 14:00:00 15 5 Este 13 Nordeste 0 -- -- 69
2018-05-18 13:00:00 16.2 6 Sur 24 Sudeste 0 -- -- 60
2018-05-18 12:00:00 15 10 Este 24 Nordeste 0 -- -- 70
2018-05-18 11:00:00 12.8 15 Nordeste 22 Nordeste 0 -- -- 81
2018-05-18 10:00:00 11.3 4 Nordeste 8 Sudoeste 0 -- -- 82
2018-05-18 09:00:00 10.1 8 Sudoeste 18 Sudoeste 0 -- -- 90
2018-05-18 08:00:00 9.1 14 Sudoeste 25 Sudoeste 0 -- -- 94
2018-05-18 07:00:00 10.2 7 Oeste 16 Sur 0 -- -- 85
2018-05-18 06:00:00 10.8 6 Oeste 22 Sudeste 0 -- -- 80
2018-05-18 05:00:00 10.9 11 Este 29 Este 0 -- -- 78
2018-05-18 04:00:00 10.6 19 Este 30 Este 0 -- -- 81
2018-05-18 03:00:00 9.8 14 Este 26 Nordeste 0.4 -- -- 90
2018-05-18 02:00:00 9.8 14 Nordeste 19 Este 0 -- -- 88
2018-05-18 01:00:00 10.1 12 Este 18 Este 0 -- -- 83
2018-05-18 00:00:00 10 4 Este 11 Noroeste 0 -- -- 84
2018-05-17 23:00:00 10.6 5 Norte 12 Norte 0 -- -- 84
2018-05-17 22:00:00 11 6 Noroeste 17 Noroeste 0 -- -- 79
2018-05-17 21:00:00 11.3 10 Noroeste 21 Norte 0.2 -- -- 77
2018-05-17 20:00:00 14.5 10 Noroeste 27 Nordeste 0 -- -- 64
2018-05-17 19:00:00 16.9 8 Sudoeste 21 Sudeste 0 -- -- 52
2018-05-17 18:00:00 17.5 14 Sudeste 21 Sudeste 0 -- -- 50
2018-05-17 17:00:00 19.2 3 Sudeste 17 Sudoeste 0 -- -- 44
2018-05-17 16:00:00 18.3 10 Oeste 21 Oeste 0 -- -- 44
2018-05-17 15:00:00 17.3 4 Oeste 11 Este 0 -- -- 49
2018-05-17 14:00:00 15.8 8 Sudeste 15 Este 0 -- -- 68
2018-05-17 13:00:00 12.6 7 Sudeste 13 Sudeste 2 -- -- 86
2018-05-17 12:00:00 12.1 4 Este 12 Norte 0.2 -- -- 86
2018-05-17 11:00:00 12.5 11 Sudeste 18 Este 0.6 -- -- 76
2018-05-17 10:00:00 14.4 3 Norte 10 Nordeste 0 -- -- 66
2018-05-17 09:00:00 13.4 4 Norte 19 Sudeste 0 -- -- 62
2018-05-17 08:00:00 12.1 3 Sur 12 Sudeste 0 -- -- 66
2018-05-17 07:00:00 12.2 4 Oeste 20 Sur 0 -- -- 66
2018-05-17 06:00:00 12.1 10 Sur 13 Sur 0 -- -- 69
2018-05-17 05:00:00 10.9 3 Nordeste 9 Nordeste 0 -- -- 77
2018-05-17 04:00:00 11.4 3 Norte 11 Nordeste 0 -- -- 73
2018-05-17 03:00:00 12.3 8 Nordeste 16 Este 0 -- -- 69
2018-05-17 02:00:00 12.5 10 Nordeste 33 Este 0 -- -- 68
2018-05-17 01:00:00 13.7 21 Sudeste 33 Sudeste 0 -- -- 63
2018-05-17 00:00:00 12 15 Nordeste 22 Nordeste 0 -- -- 69
2018-05-16 23:00:00 12.6 5 Nordeste 8 Nordeste 0 -- -- 64
2018-05-16 22:00:00 14.1 4 Nordeste 14 Norte 0 -- -- 55
2018-05-16 21:00:00 16.2 10 Norte 22 Nordeste 0 -- -- 50
2018-05-16 20:00:00 17.8 14 Norte 31 Norte 0 -- -- 46
2018-05-16 19:00:00 18.8 18 Norte 32 Norte 0 -- -- 46
2018-05-16 18:00:00 19.3 6 Nordeste 26 Nordeste 0 -- -- 41
2018-05-16 17:00:00 19.8 13 Nordeste 30 Nordeste 0 -- -- 38
2018-05-16 16:00:00 18.8 10 Norte 34 Este 0 -- -- 43
2018-05-16 15:00:00 19.1 15 Nordeste 28 Nordeste 0 -- -- 42
2018-05-16 14:00:00 18.2 15 Nordeste 28 Nordeste 0 -- -- 48
2018-05-16 13:00:00 17.4 13 Este 28 Nordeste 0 -- -- 50
2018-05-16 12:00:00 15.9 19 Nordeste 33 Nordeste 0 -- -- 53
2018-05-16 11:00:00 14.7 19 Nordeste 31 Nordeste 0 -- -- 56
2018-05-16 10:00:00 13.2 19 Este 33 Este 0 -- -- 60
2018-05-16 09:00:00 11.8 9 Nordeste 16 Nordeste 0 -- -- 67
2018-05-16 08:00:00 9.8 11 Nordeste 15 Este 0 -- -- 73
2018-05-16 07:00:00 7.4 6 Este 10 Este 0 -- -- 82
2018-05-16 06:00:00 5.8 4 Nordeste 13 Este 0 -- -- 89
2018-05-16 05:00:00 6.5 4 Nordeste 10 Norte 0 -- -- 86
2018-05-16 04:00:00 6.7 9 Nordeste 14 Este 0 -- -- 84
2018-05-16 03:00:00 6.3 6 Este 14 Nordeste 0 -- -- 86
2018-05-16 02:00:00 7.1 10 Nordeste 12 Nordeste 0 -- -- 82
2018-05-16 01:00:00 7.6 9 Este 13 Nordeste 0 -- -- 79
2018-05-16 00:00:00 8.4 10 Este 23 Este 0 -- -- 74
2018-05-15 23:00:00 10.3 17 Nordeste 26 Nordeste 0 -- -- 67
2018-05-15 22:00:00 12 17 Nordeste 28 Nordeste 0 -- -- 64
2018-05-15 21:00:00 14.4 19 Nordeste 36 Norte 0 -- -- 57
2018-05-15 20:00:00 15.7 25 Nordeste 40 Norte 0 -- -- 52
2018-05-15 19:00:00 16.5 25 Norte 43 Norte 0 -- -- 52
2018-05-15 18:00:00 17.6 22 Norte 33 Norte 0 -- -- 48
2018-05-15 17:00:00 18.1 11 Nordeste 24 Norte 0 -- -- 45
2018-05-15 16:00:00 16.9 9 Nordeste 23 Norte 0 -- -- 43
2018-05-15 15:00:00 15.9 10 Norte 22 Norte 0 -- -- 43
2018-05-15 14:00:00 14.1 6 Nordeste 21 Norte 0 -- -- 48
2018-05-15 13:00:00 12.4 9 Nordeste 22 Nordeste 0 -- -- 50
2018-05-15 12:00:00 10.7 7 Norte 17 Noroeste 0 -- -- 48
2018-05-15 11:00:00 8.3 5 Oeste 14 Oeste 0 -- -- 51
2018-05-15 10:00:00 6.5 4 Noroeste 11 Noroeste 0 -- -- 58
2018-05-15 09:00:00 6.1 0 Calma 6 Nordeste 0 -- -- 60
2018-05-15 08:00:00 4.4 5 Nordeste 8 Nordeste 0 -- -- 64
2018-05-15 07:00:00 2.1 5 Sudeste 8 Sudeste 0 -- -- 74
2018-05-15 06:00:00 2.2 2 Norte 8 Este 0 -- -- 74
2018-05-15 05:00:00 2.3 3 Sur 5 Sudeste 0 -- -- 78
2018-05-15 04:00:00 2.3 0 Calma 4 Noroeste 0 -- -- 78
2018-05-15 03:00:00 3 0 Calma 6 Nordeste 0 -- -- 75
2018-05-15 02:00:00 3.5 5 Nordeste 10 Norte 0 -- -- 73
2018-05-15 01:00:00 4.6 3 Norte 9 Norte 0 -- -- 74
2018-05-15 00:00:00 4.9 2 Sudeste 13 Norte 0 -- -- 78
2018-05-14 23:00:00 5.9 13 Nordeste 30 Nordeste 0 -- -- 74
2018-05-14 22:00:00 7.4 17 Nordeste 35 Norte 0 -- -- 69
2018-05-14 21:00:00 9.8 15 Norte 29 Norte 0 -- -- 57
2018-05-14 20:00:00 11.6 16 Norte 32 Norte 0 -- -- 49
2018-05-14 19:00:00 12.8 17 Norte 33 Norte 0 -- -- 47
2018-05-14 18:00:00 12.5 17 Norte 37 Norte 0 -- -- 51
2018-05-14 17:00:00 12.2 20 Norte 34 Norte 0 -- -- 53
2018-05-14 16:00:00 11.3 21 Norte 40 Norte 0 -- -- 55
2018-05-14 15:00:00 11.4 18 Norte 36 Noroeste 0 -- -- 55
2018-05-14 14:00:00 11 15 Norte 27 Nordeste 0 -- -- 66
2018-05-14 13:00:00 9 11 Noroeste 20 Noroeste 0 -- -- 77
2018-05-14 12:00:00 7 9 Noroeste 15 Norte 0 -- -- 88
2018-05-14 11:00:00 6.3 8 Noroeste 17 Oeste 0 -- -- 93
2018-05-14 10:00:00 5.7 11 Oeste 18 Oeste 0 -- -- 95
2018-05-14 09:00:00 5.1 9 Oeste 18 Oeste 0 -- -- 95
2018-05-14 08:00:00 4.7 13 Sudoeste 21 Sudoeste 0 -- -- 94
2018-05-14 07:00:00 4.7 10 Oeste 17 Oeste 0 -- -- 91
2018-05-14 06:00:00 4.8 12 Oeste 18 Sudoeste 0 -- -- 91
2018-05-14 05:00:00 4.7 10 Oeste 14 Oeste 0 -- -- 91
2018-05-14 04:00:00 4.8 8 Sudoeste 13 Oeste 0 -- -- 89
2018-05-14 03:00:00 5 9 Sudoeste 14 Oeste 0 -- -- 86
2018-05-14 02:00:00 4.8 9 Oeste 17 Oeste 0 -- -- 84
2018-05-14 01:00:00 4.7 9 Oeste 16 Oeste 0 -- -- 81
2018-05-11 20:00:00 -- -- -- -- -- -- -- -- --
2018-05-11 19:00:00 17 13 Sudoeste 25 Sudoeste 0 -- -- 73
2018-05-11 18:00:00 15.3 8 Sudeste 46 Sudoeste 2 -- -- 81
2018-05-11 17:00:00 19.3 21 Oeste 33 Oeste 0 -- -- 53
2018-05-11 16:00:00 20.9 18 Oeste 33 Oeste 0 -- -- 52
2018-05-11 15:00:00 19.9 22 Oeste 35 Oeste 0 -- -- 57
2018-05-11 14:00:00 20.1 17 Sudoeste 35 Oeste 0 -- -- 46
2018-05-11 13:00:00 19.1 19 Sudoeste 32 Sudoeste 0 -- -- 51
2018-05-11 12:00:00 18.7 21 Oeste 30 Sudoeste 0 -- -- 53
2018-05-11 11:00:00 17.5 17 Sudoeste 27 Oeste 0 -- -- 54
2018-05-11 10:00:00 16.6 17 Sudoeste 24 Sudoeste 0 -- -- 53
2018-05-11 09:00:00 15 12 Sudoeste 16 Sur 0 -- -- 56
2018-05-11 08:00:00 12.8 10 Sur 16 Sur 0 -- -- 60
2018-05-11 07:00:00 11.2 11 Sur 13 Sur 0 -- -- 64
2018-05-11 06:00:00 10.3 8 Sudoeste 10 Sur 0 -- -- 66
2018-05-11 05:00:00 10.2 7 Sur 10 Sudoeste 0 -- -- 59
2018-05-11 04:00:00 10.2 9 Sur 10 Sur 0 -- -- 67
2018-05-11 03:00:00 10.4 7 Sudoeste 10 Sudoeste 0 -- -- 66
2018-05-11 02:00:00 11.1 8 Sudoeste 11 Sur 0 -- -- 64
2018-05-11 01:00:00 11.2 7 Sur 10 Sur 0 -- -- 64
2018-05-11 00:00:00 9.1 6 Este 8 Este 0 -- -- 69
2018-05-10 23:00:00 10.6 2 Este 6 Este 0 -- -- 64
2018-05-10 22:00:00 11.6 4 Nordeste 11 Norte 0 -- -- 61
2018-05-10 21:00:00 14.1 6 Norte 14 Norte 0 -- -- 55
2018-05-10 20:00:00 15.5 9 Norte 18 Norte 0 -- -- 52
2018-05-10 19:00:00 16.2 9 Norte 23 Noroeste 0 -- -- 50
2018-05-10 18:00:00 16.9 11 Noroeste 31 Noroeste 0 -- -- 50
2018-05-10 17:00:00 17 13 Oeste 26 Noroeste 0 -- -- 50
2018-05-10 16:00:00 16.7 5 Norte 22 Norte 0 -- -- 48
2018-05-10 15:00:00 15.6 6 Nordeste 23 Este 0 -- -- 47
2018-05-10 14:00:00 15 10 Norte 25 Noroeste 0 -- -- 55
2018-05-10 13:00:00 13.6 12 Nordeste 24 Norte 0 -- -- 59
2018-05-10 12:00:00 12.6 14 Nordeste 30 Nordeste 0 -- -- 65
2018-05-10 11:00:00 11.9 14 Nordeste 27 Nordeste 0 -- -- 69
2018-05-10 10:00:00 9.9 17 Nordeste 31 Nordeste 0 -- -- 70
2018-05-10 09:00:00 8.8 19 Nordeste 26 Nordeste 0 -- -- 74
2018-05-10 08:00:00 7.4 12 Nordeste 17 Nordeste 0 -- -- 87
2018-05-10 07:00:00 7.7 10 Nordeste 17 Norte 0 -- -- 91
2018-05-10 06:00:00 8.2 8 Nordeste 19 Norte 0 -- -- 90
2018-05-10 05:00:00 9 10 Nordeste 17 Norte 0 -- -- 90
2018-05-10 04:00:00 9.5 6 Nordeste 9 Nordeste 0 -- -- 92
2018-05-10 03:00:00 9.9 4 Nordeste 13 Noroeste 0 -- -- 91
2018-05-10 02:00:00 10.7 7 Norte 13 Noroeste 0 -- -- 88
2018-05-10 01:00:00 11.9 11 Nordeste 19 Norte 0 -- -- 80
2018-05-10 00:00:00 12.8 8 Este 11 Sudeste 0 -- -- 74
2018-05-09 23:00:00 13.5 8 Este 9 Nordeste 0 -- -- 70
2018-05-09 22:00:00 14.2 3 Este 12 Nordeste 0 -- -- 67
2018-05-09 21:00:00 15.1 9 Nordeste 20 Norte 0 -- -- 65
2018-05-09 20:00:00 16.8 12 Noroeste 27 Noroeste 0 -- -- 62
2018-05-09 19:00:00 18.4 14 Noroeste 25 Noroeste 0 -- -- 56
2018-05-09 18:00:00 18.6 15 Noroeste 30 Oeste 0 -- -- 52
2018-05-09 17:00:00 18.9 14 Noroeste 33 Oeste 0 -- -- 54
2018-05-09 16:00:00 18.9 15 Noroeste 29 Noroeste 0 -- -- 51
2018-05-09 15:00:00 18 13 Noroeste 27 Oeste 0 -- -- 56
2018-05-09 14:00:00 17.4 14 Oeste 26 Noroeste 0 -- -- 55
2018-05-09 13:00:00 16.8 10 Noroeste 17 Noroeste 0 -- -- 52
2018-05-09 12:00:00 15.6 10 Noroeste 18 Noroeste 0 -- -- 50
2018-05-09 11:00:00 13.7 3 Noroeste 12 Noroeste 0 -- -- 65
2018-05-09 10:00:00 13 6 Noroeste 10 Oeste 0 -- -- 75
2018-05-09 09:00:00 12.7 2 Este 9 Este 0 -- -- 63
2018-05-09 08:00:00 8.6 8 Este 10 Este 0 -- -- 93
2018-05-09 07:00:00 7.3 6 Sudeste 8 Sudeste 0 -- -- 95
2018-05-09 06:00:00 7.5 4 Este 8 Norte 0 -- -- 93
2018-05-09 05:00:00 10.1 3 Oeste 6 Sudoeste 0 -- -- 81
2018-05-09 04:00:00 10.3 0 Calma 13 Sudeste 0 -- -- 82
2018-05-09 03:00:00 10.2 12 Sudeste 14 Sudeste 0 -- -- 84
2018-05-09 02:00:00 9.3 6 Norte 10 Noroeste 0 -- -- 90
2018-05-09 01:00:00 10.2 7 Nordeste 12 Nordeste 0 -- -- 85
2018-05-09 00:00:00 10.6 4 Este 16 Nordeste 0 -- -- 82
2018-05-08 23:00:00 11.7 10 Este 15 Este 0 -- -- 78
2018-05-08 22:00:00 12.8 9 Nordeste 22 Nordeste 0 -- -- 73
2018-05-08 21:00:00 15 13 Nordeste 34 Nordeste 0 -- -- 66
2018-05-08 20:00:00 17.7 20 Norte 35 Norte 0 -- -- 56
2018-05-08 19:00:00 20 19 Norte 30 Norte 0 -- -- 50
2018-05-08 18:00:00 20.2 18 Norte 34 Nordeste 0 -- -- 39
2018-05-08 17:00:00 19.6 13 Norte 32 Norte 0 -- -- 52
2018-05-08 16:00:00 19.6 17 Norte 30 Nordeste 0 -- -- 61
2018-05-08 15:00:00 19.1 10 Norte 22 Norte 0 -- -- 62
2018-05-08 14:00:00 18.6 11 Noroeste 22 Noroeste 0 -- -- 68
2018-05-08 13:00:00 17.1 10 Noroeste 20 Oeste 0 -- -- 74
2018-05-08 12:00:00 16.8 10 Noroeste 17 Oeste 0 -- -- 76
2018-05-08 11:00:00 15.9 7 Oeste 18 Oeste 0 -- -- 76
2018-05-08 10:00:00 15.2 7 Oeste 12 Oeste 0 -- -- 74
2018-05-08 09:00:00 13.9 6 Sudoeste 9 Sudoeste 0 -- -- 83
2018-05-08 08:00:00 12.5 8 Sur 10 Sur 0 -- -- 83
2018-05-08 07:00:00 11.5 8 Sur 9 Sudoeste 0 -- -- 85
2018-05-08 06:00:00 11.2 8 Sudoeste 12 Sur 0 -- -- 88
2018-05-08 05:00:00 11.7 6 Sudoeste 8 Sudoeste 0 -- -- 82
2018-05-08 04:00:00 12.2 0 Calma 9 Sudeste 0 -- -- 82
2018-05-08 03:00:00 12.6 5 Nordeste 10 Sur 0 -- -- 82
2018-05-08 02:00:00 13.6 0 Calma 5 Sur 0 -- -- 77
2018-05-08 01:00:00 13.6 4 Sudoeste 5 Sudoeste 0 -- -- 77
2018-05-08 00:00:00 13.6 0 Calma 9 Este 0 -- -- 75
2018-05-07 23:00:00 13.4 7 Este 8 Este 0 -- -- 82
2018-05-07 22:00:00 13.6 5 Sur 10 Noroeste 0 -- -- 74
2018-05-07 21:00:00 14.5 5 Sudeste 9 Sudeste 0 -- -- 76
2018-05-07 20:00:00 14.5 7 Este 13 Este 0 -- -- 79
2018-05-07 19:00:00 14 13 Este 29 Este 0.4 -- -- 79
2018-05-07 18:00:00 14 19 Este 45 Este 0.6 -- -- 81
2018-05-07 17:00:00 20.1 10 Norte 25 Norte 0 -- -- 46
2018-05-07 16:00:00 20.3 11 Este 32 Nordeste 0 -- -- 46
2018-05-07 15:00:00 20 12 Este 26 Nordeste 0 -- -- 48
2018-05-07 14:00:00 19.2 5 Este 21 Este 0 -- -- 51
2018-05-07 13:00:00 18.9 12 Nordeste 22 Nordeste 0 -- -- 48
2018-05-07 12:00:00 18.6 7 Nordeste 21 Este 0 -- -- 49
2018-05-07 11:00:00 17.7 9 Nordeste 16 Nordeste 0 -- -- 51
2018-05-07 10:00:00 15.6 3 Sudeste 8 Este 0 -- -- 57
2018-05-07 09:00:00 13.3 3 Este 9 Este 0 -- -- 70
2018-05-07 08:00:00 12.2 7 Este 11 Este 0 -- -- 71
2018-05-07 07:00:00 13.1 4 Sudoeste 10 Sudeste 0 -- -- 65
2018-05-07 06:00:00 13.6 10 Sudeste 15 Sudeste 0 -- -- 62
2018-05-07 05:00:00 13 12 Sudeste 14 Sudeste 0 -- -- 64
2018-05-07 04:00:00 12.7 8 Sudeste 10 Sudeste 0 -- -- 67
2018-05-07 03:00:00 13.1 4 Sur 18 Sudeste 0 -- -- 65
2018-05-07 02:00:00 13.8 9 Sudeste 16 Sudeste 0 -- -- 62
2018-05-07 01:00:00 14.2 9 Sudeste 12 Sudeste 0 -- -- 60
2018-05-07 00:00:00 15.1 6 Sudeste 10 Sudeste 0 -- -- 58
2018-05-06 23:00:00 16 4 Sur 16 Sudoeste 0 -- -- 55
2018-05-06 22:00:00 15.8 10 Sudeste 17 Sudoeste 0 -- -- 57
2018-05-06 21:00:00 17.2 8 Sur 16 Sudeste 0 -- -- 54
2018-05-06 20:00:00 19.1 5 Este 18 Este 0 -- -- 46
2018-05-06 19:00:00 20.3 3 Noroeste 19 Sudeste 0 -- -- 42
2018-05-06 18:00:00 19.5 11 Sudeste 28 Este 0 -- -- 48
2018-05-06 17:00:00 19.4 13 Este 26 Este 0 -- -- 43
2018-05-06 16:00:00 20.3 13 Sur 23 Este 0 -- -- 46
2018-05-06 15:00:00 19.4 9 Este 23 Sudeste 0 -- -- 44
2018-05-06 14:00:00 19.5 9 Este 22 Sudeste 0 -- -- 50
2018-05-06 13:00:00 18.4 10 Sudeste 21 Sur 0 -- -- 49
2018-05-06 12:00:00 17.4 9 Sur 25 Sudeste 0 -- -- 52
2018-05-06 11:00:00 16.4 15 Sur 23 Sur 0 -- -- 57
2018-05-06 10:00:00 16.2 8 Sudeste 13 Sudeste 0 -- -- 60
2018-05-06 09:00:00 12.9 6 Este 11 Este 0 -- -- 75
2018-05-06 08:00:00 10.3 6 Este 8 Este 0 -- -- 83
2018-05-06 07:00:00 11.2 0 Calma 8 Oeste 0 -- -- 77
2018-05-06 06:00:00 11.5 4 Noroeste 24 Sudeste 0 -- -- 76
2018-05-06 05:00:00 12 19 Sudeste 30 Sudeste 0 -- -- 74
2018-05-06 04:00:00 11.8 21 Sudeste 33 Sudeste 0 -- -- 78
2018-05-06 03:00:00 12 21 Sudeste 32 Sudeste 0 -- -- 76
2018-05-06 02:00:00 12.5 18 Sudeste 37 Sudeste 0 -- -- 72
2018-05-06 01:00:00 13 24 Este 38 Sudeste 0 -- -- 70
2018-05-06 00:00:00 12.8 15 Este 22 Este 0 -- -- 71
2018-05-05 23:00:00 12.1 7 Este 8 Este 0 -- -- 74
2018-05-05 22:00:00 12.7 4 Nordeste 11 Norte 0 -- -- 70
2018-05-05 21:00:00 14.9 7 Norte 24 Norte 0 -- -- 62
2018-05-05 20:00:00 17.9 10 Noroeste 19 Oeste 0 -- -- 54
2018-05-05 19:00:00 18.8 13 Noroeste 21 Oeste 0 -- -- 49
2018-05-05 18:00:00 19.4 12 Noroeste 26 Oeste 0 -- -- 48
2018-05-05 17:00:00 18.3 12 Este 33 Nordeste 0 -- -- 49
2018-05-05 16:00:00 17.5 10 Nordeste 26 Nordeste 0 -- -- 52
2018-05-05 15:00:00 16.3 12 Nordeste 24 Nordeste 0 -- -- 54
2018-05-05 14:00:00 15.1 10 Nordeste 23 Nordeste 0 -- -- 60
2018-05-05 13:00:00 13.9 10 Nordeste 21 Este 0 -- -- 65
2018-05-05 12:00:00 12.7 8 Norte 17 Noroeste 0 -- -- 70
2018-05-05 11:00:00 11.3 8 Noroeste 14 Noroeste 0 -- -- 73
2018-05-05 10:00:00 11.4 4 Sur 15 Sudeste 0 -- -- 66
2018-05-05 09:00:00 10 3 Nordeste 6 Este 0 -- -- 76
2018-05-05 08:00:00 5.5 5 Este 8 Nordeste 0 -- -- 96
2018-05-05 07:00:00 4.1 8 Nordeste 9 Nordeste 0 -- -- 94
2018-05-05 06:00:00 3.4 7 Nordeste 12 Nordeste 0 -- -- 95
2018-05-05 05:00:00 3.9 5 Nordeste 12 Nordeste 0 -- -- 93
2018-05-05 04:00:00 4.4 10 Nordeste 13 Nordeste 0 -- -- 90
2018-05-05 03:00:00 5.4 9 Nordeste 16 Sudeste 0 -- -- 85
2018-05-05 02:00:00 7.7 15 Este 22 Sudeste 0 -- -- 77
2018-05-05 01:00:00 5.3 13 Este 19 Este 0 -- -- 90
2018-05-05 00:00:00 5.3 10 Este 14 Nordeste 0 -- -- 89
2018-05-04 23:00:00 5.8 9 Nordeste 13 Nordeste 0 -- -- 87
2018-05-04 22:00:00 6.9 7 Nordeste 13 Norte 0 -- -- 82
2018-05-04 21:00:00 8.7 9 Norte 26 Norte 0 -- -- 76
2018-05-04 20:00:00 10.7 19 Norte 36 Norte 0 -- -- 68
2018-05-04 19:00:00 11.7 23 Norte 37 Norte 0 -- -- 64
2018-05-04 18:00:00 12.5 22 Norte 37 Norte 0 -- -- 60
2018-05-04 17:00:00 13.8 10 Norte 21 Nordeste 0 -- -- 54
2018-05-04 16:00:00 13.4 8 Norte 27 Nordeste 0 -- -- 55
2018-05-04 15:00:00 12.2 17 Nordeste 33 Nordeste 0 -- -- 57
2018-05-04 14:00:00 11.5 13 Nordeste 35 Nordeste 0 -- -- 59
2018-05-04 13:00:00 10.2 11 Norte 32 Nordeste 0 -- -- 58
2018-05-04 12:00:00 8.7 14 Nordeste 31 Nordeste 0 -- -- 63
2018-05-04 11:00:00 6.8 17 Nordeste 32 Nordeste 0 -- -- 66
2018-05-04 10:00:00 5.3 18 Nordeste 30 Nordeste 0 -- -- 69
2018-05-04 09:00:00 3.6 13 Nordeste 21 Nordeste 0 -- -- 80
2018-05-04 08:00:00 1.3 9 Este 12 Nordeste 0 -- -- 90
2018-05-04 07:00:00 0.3 9 Nordeste 17 Nordeste 0 -- -- 91
2018-05-04 06:00:00 0 9 Nordeste 17 Nordeste 0 -- -- 93
2018-05-04 05:00:00 0.2 6 Nordeste 12 Nordeste 0 -- -- 91
2018-05-04 04:00:00 0.2 8 Nordeste 10 Nordeste 0 -- -- 90
2018-05-04 03:00:00 1 5 Nordeste 9 Este 0 -- -- 87
2018-05-04 02:00:00 1.3 6 Este 12 Nordeste 0 -- -- 90
2018-05-04 01:00:00 1.4 7 Este 15 Norte 0 -- -- 88
2018-05-04 00:00:00 2.5 6 Norte 15 Nordeste 0 -- -- 82
2018-05-03 23:00:00 3.1 9 Nordeste 27 Nordeste 0 -- -- 81
2018-05-03 22:00:00 4.4 14 Nordeste 28 Norte 0 -- -- 75
2018-05-03 21:00:00 5.6 17 Norte 39 Norte 0 -- -- 68
2018-05-03 20:00:00 7.3 28 Norte 45 Norte 0 -- -- 62
2018-05-03 19:00:00 8.9 21 Norte 36 Nordeste 0 -- -- 58
2018-05-03 18:00:00 9.3 25 Norte 44 Norte 0 -- -- 56
2018-05-03 17:00:00 10 26 Norte 40 Norte 0 -- -- 52
2018-05-03 16:00:00 9.5 24 Norte 42 Norte 0 -- -- 60
2018-05-03 15:00:00 9.4 27 Norte 48 Norte 0 -- -- 62
2018-05-03 14:00:00 8.9 30 Norte 49 Norte 0 -- -- 56
2018-05-03 13:00:00 8.3 24 Norte 42 Norte 0 -- -- 61
2018-05-03 12:00:00 7.7 27 Norte 42 Norte 0 -- -- 63
2018-05-03 11:00:00 7.2 23 Norte 39 Norte 0 -- -- 72
2018-05-03 10:00:00 5.9 26 Nordeste 37 Norte 0 -- -- 80
2018-05-03 09:00:00 5.5 22 Nordeste 30 Norte 0 -- -- 91
2018-05-03 08:00:00 5.4 11 Nordeste 22 Nordeste 0 -- -- 93
2018-05-03 07:00:00 5.9 14 Nordeste 28 Nordeste 0 -- -- 92
2018-05-03 06:00:00 7.1 8 Norte 20 Norte 0 -- -- 98
2018-05-03 05:00:00 7.2 4 Norte 13 Noroeste 0 -- -- 98
2018-05-03 04:00:00 7.5 6 Oeste 13 Oeste 0.2 -- -- 96
2018-05-03 03:00:00 7.7 6 Oeste 10 Oeste 0 -- -- 94
2018-05-03 02:00:00 8.1 5 Oeste 10 Oeste 0 -- -- 92
2018-05-03 01:00:00 8.3 7 Oeste 13 Oeste 0 -- -- 92
2018-05-03 00:00:00 8.4 6 Oeste 11 Oeste 0 -- -- 94
2018-05-02 23:00:00 8.6 6 Sudoeste 12 Oeste 0 -- -- 93
2018-05-02 22:00:00 8.6 7 Oeste 15 Oeste 0.2 -- -- 91
2018-05-02 21:00:00 9.3 7 Oeste 20 Oeste 0.4 -- -- 83
2018-05-02 20:00:00 10.4 12 Oeste 21 Oeste 0 -- -- 71
2018-05-02 19:00:00 10.6 12 Oeste 30 Oeste 0 -- -- 69
2018-05-02 18:00:00 11.5 18 Oeste 30 Oeste 0 -- -- 61
2018-05-02 17:00:00 12 16 Oeste 31 Oeste 0 -- -- 52
2018-05-02 16:00:00 11.8 17 Oeste 35 Oeste 0 -- -- 44
2018-05-02 15:00:00 11.1 19 Oeste 31 Oeste 0 -- -- 42
2018-05-02 14:00:00 10.2 23 Oeste 36 Oeste 0 -- -- 34
2018-05-02 13:00:00 9.1 24 Oeste 36 Oeste 0 -- -- 43
2018-05-02 12:00:00 8 27 Oeste 40 Sudoeste 0 -- -- 57
2018-05-02 11:00:00 7 22 Sudoeste 33 Sudoeste 0 -- -- 57
2018-05-02 10:00:00 5 19 Sudoeste 33 Sudoeste 0 -- -- 71
2018-05-02 09:00:00 4.1 21 Sudoeste 31 Sudoeste 0 -- -- 80
2018-05-02 08:00:00 3.3 15 Sudoeste 27 Sudoeste 0 -- -- 86
2018-05-02 07:00:00 3.6 17 Sudoeste 26 Sudoeste 0 -- -- 78
2018-05-02 06:00:00 4.3 14 Sudoeste 28 Sudoeste 0 -- -- 74
2018-05-02 05:00:00 5.3 20 Sudoeste 28 Sudoeste 0 -- -- 64
2018-05-02 04:00:00 5.5 16 Sudoeste 23 Sudoeste 0 -- -- 62
2018-05-02 03:00:00 5.8 13 Sudoeste 17 Sudoeste 0 -- -- 59
2018-05-02 02:00:00 5.4 13 Sudoeste 17 Sudoeste 0 -- -- 62
2018-05-02 01:00:00 4.6 11 Sudoeste 14 Sudoeste 0 -- -- 66
2018-05-02 00:00:00 4.6 8 Sudoeste 10 Sudoeste 0 -- -- 64
2018-05-01 23:00:00 5.2 6 Sudoeste 8 Sudoeste 0 -- -- 61
2018-05-01 22:00:00 6.4 3 Sudoeste 6 Oeste 0 -- -- 56
2018-05-01 21:00:00 8.2 4 Oeste 19 Oeste 0 -- -- 50
2018-05-01 20:00:00 9.4 8 Oeste 21 Oeste 0 -- -- 48
2018-05-01 19:00:00 9.8 10 Noroeste 26 Noroeste 0 -- -- 45
2018-05-01 18:00:00 9.9 14 Noroeste 23 Oeste 0 -- -- 44
2018-05-01 17:00:00 8 11 Noroeste 23 Noroeste 0 -- -- 50
2018-05-01 16:00:00 8.2 9 Noroeste 27 Oeste 0 -- -- 53
2018-05-01 15:00:00 8 11 Noroeste 22 Noroeste 0 -- -- 59
2018-05-01 14:00:00 7 11 Norte 22 Norte 0 -- -- 59
2018-05-01 13:00:00 6.1 9 Norte 21 Norte 0 -- -- 64
2018-05-01 12:00:00 4.5 9 Norte 19 Norte 0 -- -- 77
2018-05-01 11:00:00 4.4 10 Norte 18 Nordeste 0 -- -- 79
2018-05-01 10:00:00 3.4 8 Nordeste 12 Nordeste 0 -- -- 88
2018-05-01 09:00:00 2.2 2 Nordeste 7 Este 0.2 -- -- 96
2018-05-01 08:00:00 0.3 3 Nordeste 11 Este 0 -- -- 99
2018-05-01 07:00:00 -0.7 5 Este 15 Nordeste 0 -- -- 99
2018-05-01 06:00:00 -0.7 7 Nordeste 12 Nordeste 0 -- -- 98
2018-05-01 05:00:00 -0.5 3 Este 9 Nordeste 0 -- -- 98
2018-05-01 04:00:00 -0.3 3 Nordeste 5 Nordeste 0 -- -- 98
2018-05-01 03:00:00 0.4 0 Calma 6 Este 0 -- -- 98
2018-05-01 02:00:00 0.7 4 Nordeste 8 Nordeste 0 -- -- 97
2018-05-01 01:00:00 1.1 4 Nordeste 8 Nordeste 0 -- -- 96
2018-05-01 00:00:00 2 5 Norte 12 Noroeste 0 -- -- 95
2018-04-30 23:00:00 2.7 5 Norte 26 Norte 0.2 -- -- 94
2018-04-30 22:00:00 3.2 4 Noroeste 9 Oeste 0 -- -- 91
2018-04-30 21:00:00 3.8 4 Noroeste 11 Oeste 0 -- -- 87
2018-04-30 20:00:00 4.3 8 Oeste 15 Oeste 0 -- -- 85
2018-04-30 19:00:00 4.9 8 Noroeste 13 Sudoeste 0 -- -- 91
2018-04-30 18:00:00 2.4 12 Oeste 20 Oeste 1.2 -- -- 97
2018-04-30 17:00:00 0.5 15 Sudoeste 32 Oeste 0.2 -- -- 97
2018-04-30 16:00:00 3.8 19 Sudoeste 31 Sudoeste 0.6 -- -- 93
2018-04-30 15:00:00 1.2 21 Oeste 39 Oeste 0 -- -- 92
2018-04-30 14:00:00 2.8 19 Sudoeste 33 Sudoeste 0 -- -- 82
2018-04-30 13:00:00 4.9 15 Sudoeste 31 Sudoeste 0 -- -- 77
2018-04-30 12:00:00 4.3 18 Sudoeste 32 Sudoeste 0.2 -- -- 78
2018-04-30 11:00:00 2.4 19 Oeste 28 Oeste 0 -- -- 88
2018-04-30 10:00:00 1.4 19 Oeste 31 Sudoeste 0 -- -- 99
2018-04-30 09:00:00 0.6 16 Sudoeste 25 Oeste 0 -- -- 100
2018-04-30 08:00:00 0.5 14 Oeste 31 Oeste 0 -- -- 100
2018-04-30 07:00:00 0.6 21 Sudoeste 28 Sudoeste 0 -- -- 99
2018-04-30 06:00:00 0.8 16 Sudoeste 25 Oeste 0 -- -- 99
2018-04-30 05:00:00 1 17 Sudoeste 28 Sudoeste 0 -- -- 98
2018-04-30 04:00:00 0.2 15 Sudoeste 30 Sudoeste 0 -- -- 97
2018-04-30 03:00:00 0.6 22 Sudoeste 35 Sudoeste 0 -- -- 97
2018-04-30 02:00:00 0.9 21 Sudoeste 33 Sudoeste 0 -- -- 97
2018-04-30 01:00:00 1.4 24 Sudoeste 45 Sudoeste 0 -- -- 96
2018-04-30 00:00:00 1.4 24 Sudoeste 37 Oeste 0 -- -- 95
2018-04-29 23:00:00 2.1 23 Sudoeste 39 Sudoeste 0 -- -- 92
2018-04-29 22:00:00 3 27 Sudoeste 44 Oeste 0 -- -- 88
2018-04-29 21:00:00 3.5 23 Sudoeste 65 Oeste 0.2 -- -- 93
2018-04-29 20:00:00 4.1 29 Sudoeste 57 Sudoeste 0 -- -- 79
2018-04-29 19:00:00 4.9 35 Sudoeste 67 Sudoeste 0.4 -- -- 77
2018-04-29 18:00:00 4.2 36 Oeste 66 Oeste 0.8 -- -- 79
2018-04-29 17:00:00 7.2 40 Sudoeste 64 Sudoeste 0 -- -- 74
2018-04-29 16:00:00 6.1 35 Oeste 54 Oeste 0 -- -- 79
2018-04-29 15:00:00 4.7 24 Sudoeste 60 Sudoeste 0.8 -- -- 100
2018-04-29 14:00:00 3.8 24 Sudoeste 39 Sudoeste 0.4 -- -- 100
2018-04-29 13:00:00 1.7 23 Sudoeste 38 Sudoeste 0 -- -- 100
2018-04-29 12:00:00 1.6 25 Sudoeste 36 Sudoeste 0 -- -- 98
2018-04-29 11:00:00 2.2 25 Sudoeste 41 Sudoeste 0.2 -- -- 96
2018-04-29 10:00:00 3.3 22 Oeste 33 Oeste 0 -- -- 95
2018-04-29 09:00:00 3.6 15 Oeste 21 Sudoeste 0 -- -- 93
2018-04-29 08:00:00 3.5 13 Sudoeste 19 Sudoeste 0 -- -- 93
2018-04-29 07:00:00 3.6 10 Sudoeste 19 Sur 0 -- -- 89
2018-04-29 06:00:00 3.3 11 Sur 19 Sur 0 -- -- 90
2018-04-29 05:00:00 4.5 9 Sudoeste 17 Sudoeste 0 -- -- 81
2018-04-29 04:00:00 4 3 Sudoeste 29 Oeste 0 -- -- 82
2018-04-29 03:00:00 4.5 25 Oeste 36 Oeste 0 -- -- 79
2018-04-29 02:00:00 4.9 12 Sudoeste 31 Oeste 0 -- -- 75
2018-04-29 01:00:00 6.2 19 Sudoeste 27 Oeste 0 -- -- 66
2018-04-29 00:00:00 6.3 11 Sudoeste 20 Sudoeste 0 -- -- 64
2018-04-28 23:00:00 6.9 12 Sudoeste 19 Sudoeste 0 -- -- 59
2018-04-28 22:00:00 7.7 13 Sudoeste 28 Oeste 0 -- -- 56
2018-04-28 21:00:00 8.8 20 Oeste 33 Sudoeste 0 -- -- 50
2018-04-28 20:00:00 9.6 24 Oeste 41 Sudoeste 0 -- -- 52
2018-04-28 19:00:00 11.3 32 Oeste 44 Oeste 0 -- -- 53
2018-04-28 18:00:00 12.3 28 Oeste 43 Sudoeste 0 -- -- 53
2018-04-28 17:00:00 13.5 24 Sudoeste 44 Sudoeste 0 -- -- 52
2018-04-28 16:00:00 13.1 25 Oeste 53 Sudoeste 0 -- -- 57
2018-04-28 15:00:00 13.6 33 Sudoeste 53 Sudoeste 0 -- -- 47
2018-04-28 14:00:00 13.1 21 Sudoeste 44 Sudoeste 0 -- -- 50
2018-04-28 13:00:00 12.3 17 Oeste 33 Sudoeste 0 -- -- 62
2018-04-28 12:00:00 11.7 14 Sudoeste 26 Sudoeste 0 -- -- 70
2018-04-28 11:00:00 9.5 15 Sudoeste 24 Sudoeste 0 -- -- 74
2018-04-28 10:00:00 6.7 14 Sudoeste 26 Sudoeste 0 -- -- 91
2018-04-28 09:00:00 6.8 17 Sudoeste 24 Sudoeste 0 -- -- 90
2018-04-28 08:00:00 6.8 6 Sudoeste 9 Sudoeste 0 -- -- 88
2018-04-28 07:00:00 7.4 3 Sudoeste 12 Sur 0 -- -- 80
2018-04-28 06:00:00 8.2 8 Sur 14 Sur 0 -- -- 75
2018-04-28 05:00:00 8.4 8 Sur 14 Sudoeste 0 -- -- 74
2018-04-28 04:00:00 8.5 6 Sudoeste 9 Sudoeste 0 -- -- 76
2018-04-28 03:00:00 9 6 Sudoeste 9 Sudoeste 0 -- -- 82
2018-04-28 02:00:00 10.7 5 Noroeste 9 Oeste 0 -- -- 74
2018-04-28 01:00:00 11.4 0 Calma 8 Oeste 0 -- -- 64
2018-04-28 00:00:00 11.6 3 Oeste 12 Oeste 0 -- -- 65
2018-04-27 23:00:00 11.9 4 Sudoeste 14 Sudoeste 0 -- -- 71
2018-04-27 22:00:00 12.2 10 Sudoeste 17 Oeste 0 -- -- 70
2018-04-27 21:00:00 13.2 13 Oeste 32 Oeste 0 -- -- 64
2018-04-27 20:00:00 15.4 23 Oeste 35 Oeste 0 -- -- 54
2018-04-27 19:00:00 16.6 20 Oeste 34 Oeste 0 -- -- 52
2018-04-27 18:00:00 17.2 17 Oeste 36 Oeste 0 -- -- 48
2018-04-27 17:00:00 16.8 24 Oeste 39 Sudoeste 0 -- -- 47
2018-04-27 16:00:00 16.6 22 Oeste 40 Sudoeste 0 -- -- 47
2018-04-27 15:00:00 16 19 Oeste 35 Oeste 0 -- -- 53
2018-04-27 14:00:00 15.4 20 Oeste 32 Sudoeste 0 -- -- 59
2018-04-27 13:00:00 14.3 16 Oeste 25 Sudoeste 0 -- -- 68
2018-04-27 12:00:00 13.1 14 Oeste 24 Oeste 0 -- -- 71
2018-04-27 11:00:00 12.4 14 Sudoeste 26 Oeste 0 -- -- 72
2018-04-27 10:00:00 10.6 20 Sudoeste 26 Sudoeste 0 -- -- 86
2018-04-27 09:00:00 10.2 22 Oeste 30 Oeste 0 -- -- 96
2018-04-27 08:00:00 10.8 18 Sudoeste 27 Sudoeste 0 -- -- 95
2018-04-27 07:00:00 11.2 16 Sudoeste 26 Sudoeste 0 -- -- 93
2018-04-27 06:00:00 11.6 19 Sudoeste 28 Sudoeste 0 -- -- 92
2018-04-27 05:00:00 12.3 15 Sudoeste 27 Sudoeste 0 -- -- 88
2018-04-27 04:00:00 12.8 17 Sudoeste 37 Sudoeste 0 -- -- 86
2018-04-27 03:00:00 13.9 22 Sudoeste 33 Sudoeste 0 -- -- 79
2018-04-27 02:00:00 15 18 Sudoeste 28 Sudoeste 0 -- -- 74
2018-04-27 01:00:00 15.5 12 Sur 16 Sur 0 -- -- 71
2018-04-27 00:00:00 14.9 10 Sudoeste 11 Sudoeste 0 -- -- 72
2018-04-26 23:00:00 15.6 2 Sur 4 Sur 0 -- -- 68
2018-04-26 22:00:00 15.8 0 Calma 4 Norte 0 -- -- 68
2018-04-26 21:00:00 17.4 4 Norte 14 Noroeste 0 -- -- 63
2018-04-26 20:00:00 19.2 7 Noroeste 16 Noroeste 0 -- -- 60
2018-04-26 19:00:00 20.1 10 Oeste 27 Oeste 0 -- -- 55
2018-04-26 18:00:00 20.3 16 Oeste 26 Sudoeste 0 -- -- 58
2018-04-26 17:00:00 19.9 14 Oeste 34 Oeste 0 -- -- 57
2018-04-26 16:00:00 19.4 13 Oeste 24 Oeste 0 -- -- 60
2018-04-26 15:00:00 18.9 14 Oeste 24 Oeste 0 -- -- 60
2018-04-26 14:00:00 18.3 11 Oeste 18 Oeste 0 -- -- 58
2018-04-26 13:00:00 16.8 8 Noroeste 15 Noroeste 0 -- -- 62
2018-04-26 12:00:00 15.2 6 Norte 13 Nordeste 0 -- -- 73
2018-04-26 11:00:00 13 5 Norte 10 Nordeste 0 -- -- 81
2018-04-26 10:00:00 11.5 0 Calma 0 Calma 0 -- -- 86
2018-04-26 09:00:00 9.7 0 Calma 4 Sudoeste 0 -- -- 95
2018-04-26 08:00:00 7.3 0 Calma 10 Noroeste 0 -- -- 95
2018-04-26 07:00:00 8.9 5 Oeste 10 Este 0 -- -- 93
2018-04-26 06:00:00 7.6 9 Este 14 Nordeste 0 -- -- 97
2018-04-26 05:00:00 7.9 10 Nordeste 13 Nordeste 0 -- -- 94
2018-04-26 04:00:00 9.4 7 Nordeste 22 Este 0 -- -- 90
2018-04-26 03:00:00 8.5 13 Nordeste 17 Nordeste 0 -- -- 93
2018-04-26 02:00:00 8.8 12 Nordeste 33 Este 0 -- -- 93
2018-04-26 01:00:00 11.6 21 Nordeste 31 Este 0 -- -- 86
2018-04-26 00:00:00 9.7 11 Nordeste 16 Nordeste 0 -- -- 92
2018-04-25 23:00:00 10 3 Nordeste 10 Nordeste 0 -- -- 88
2018-04-25 22:00:00 11.2 5 Nordeste 11 Noroeste 0 -- -- 84
2018-04-25 21:00:00 14 8 Noroeste 19 Noroeste 0 -- -- 76
2018-04-25 20:00:00 17.5 12 Norte 22 Norte 0 -- -- 64
2018-04-25 19:00:00 19 16 Norte 28 Norte 0 -- -- 63
2018-04-25 18:00:00 21.2 21 Norte 34 Noroeste 0 -- -- 55
2018-04-25 17:00:00 22.7 15 Norte 29 Norte 0 -- -- 49
2018-04-25 16:00:00 22.6 11 Norte 25 Nordeste 0 -- -- 38
2018-04-25 15:00:00 21.9 15 Nordeste 23 Nordeste 0 -- -- 40
2018-04-25 14:00:00 21.1 12 Nordeste 19 Nordeste 0 -- -- 44
2018-04-25 13:00:00 20 11 Norte 17 Norte 0 -- -- 57
2018-04-25 12:00:00 18.6 9 Norte 18 Noroeste 0 -- -- 64
2018-04-25 11:00:00 19.1 11 Noroeste 15 Oeste 0 -- -- 61
2018-04-25 10:00:00 18.5 4 Norte 8 Este 0 -- -- 60
2018-04-25 09:00:00 16.7 3 Norte 8 Este 0 -- -- 63
2018-04-25 08:00:00 13.9 8 Este 11 Sudeste 0 -- -- 63
2018-04-25 07:00:00 14.7 8 Sudeste 11 Sudeste 0 -- -- 59
2018-04-25 06:00:00 15 9 Sudeste 10 Sudeste 0 -- -- 57
2018-04-25 05:00:00 15.4 6 Sudeste 10 Sudeste 0 -- -- 55
2018-04-25 04:00:00 15.1 5 Sudeste 13 Sudeste 0 -- -- 55
2018-04-25 03:00:00 14.9 9 Sudeste 12 Sudeste 0 -- -- 56
2018-04-25 02:00:00 15.3 5 Este 12 Sudeste 0 -- -- 56
2018-04-25 01:00:00 17.1 6 Sur 8 Sur 0 -- -- 48
2018-04-25 00:00:00 15.8 8 Sudoeste 13 Sudoeste 0 -- -- 52
2018-04-24 23:00:00 15.1 9 Sudoeste 14 Sudoeste 0 -- -- 59
2018-04-24 22:00:00 15.5 9 Sudoeste 33 Sudoeste 0 -- -- 60
2018-04-24 21:00:00 15.7 26 Sur 49 Sudeste 0.2 -- -- 63
2018-04-24 20:00:00 18.5 11 Sur 15 Sur 0 -- -- 51
2018-04-24 19:00:00 17.9 7 Sur 25 Sur 1.4 -- -- 64
2018-04-24 18:00:00 16.8 17 Nordeste 30 Nordeste 2 -- -- 58
2018-04-24 17:00:00 21.4 14 Norte 26 Norte 0 -- -- 44
2018-04-24 16:00:00 22.4 13 Norte 26 Oeste 0 -- -- 41
2018-04-24 15:00:00 22.8 13 Sudoeste 27 Oeste 0 -- -- 41
2018-04-24 14:00:00 21.9 9 Noroeste 20 Oeste 0 -- -- 44
2018-04-24 13:00:00 21.3 8 Sudeste 23 Nordeste 0 -- -- 39
2018-04-24 12:00:00 20 13 Nordeste 19 Nordeste 0 -- -- 46
2018-04-24 11:00:00 19.4 8 Nordeste 14 Nordeste 0 -- -- 48
2018-04-24 10:00:00 18.8 3 Sudeste 9 Sur 0 -- -- 49
2018-04-24 09:00:00 16.8 2 Este 5 Sudeste 0 -- -- 55
2018-04-24 08:00:00 14 6 Sudeste 12 Sudeste 0 -- -- 56
2018-04-24 07:00:00 13.2 8 Sudeste 12 Sudeste 0 -- -- 60
2018-04-24 06:00:00 13.7 6 Este 8 Este 0 -- -- 60
2018-04-24 05:00:00 12.7 3 Norte 10 Este 0 -- -- 67
2018-04-24 04:00:00 13.2 5 Nordeste 24 Sudeste 0 -- -- 68
2018-04-24 03:00:00 15.4 19 Sudeste 26 Sudeste 0 -- -- 55
2018-04-24 02:00:00 14.5 10 Este 19 Este 0 -- -- 62
2018-04-24 01:00:00 13.4 9 Nordeste 16 Este 0 -- -- 71
2018-04-24 00:00:00 15.3 10 Este 18 Sudeste 0 -- -- 59